createdAt,value
2022-12-14T00:02:56.858Z,6.87
2022-12-14T00:05:59.612Z,6.27
2022-12-14T00:09:05.841Z,6.57
2022-12-14T00:12:10.114Z,6.93
2022-12-14T00:15:13.196Z,3.10
2022-12-14T00:18:22.497Z,6.53
2022-12-14T00:21:26.241Z,6.53
2022-12-14T00:24:33.654Z,7.07
2022-12-14T00:27:36.679Z,7.60
2022-12-14T00:30:39.444Z,5.30
2022-12-14T00:33:46.809Z,5.87
2022-12-14T00:36:49.522Z,7.67
2022-12-14T00:39:56.174Z,7.57
2022-12-14T00:42:58.892Z,7.27
2022-12-14T00:46:08.490Z,7.47
2022-12-14T00:49:11.685Z,7.27
2022-12-14T00:52:14.574Z,5.67
2022-12-14T00:55:18.651Z,4.93
2022-12-14T00:58:23.267Z,6.33
2022-12-14T01:01:26.690Z,7.20
2022-12-14T01:04:32.792Z,7.63
2022-12-14T01:07:37.378Z,8.07
2022-12-14T01:10:41.859Z,6.97
2022-12-14T01:13:44.635Z,7.00
2022-12-14T01:16:58.224Z,6.37
2022-12-14T01:20:00.930Z,4.97
2022-12-14T01:23:03.816Z,7.27
2022-12-14T01:26:12.142Z,6.53
2022-12-14T01:29:16.249Z,5.67
2022-12-14T01:32:18.998Z,6.90
2022-12-14T01:35:21.768Z,7.03
2022-12-14T01:38:24.485Z,6.73
2022-12-14T01:41:30.741Z,6.60
2022-12-14T01:44:55.833Z,3.07
2022-12-14T01:48:04.451Z,5.30
2022-12-14T01:51:07.549Z,6.43
2022-12-14T01:54:13.641Z,5.03
2022-12-14T01:57:22.020Z,3.80
2022-12-14T02:00:25.017Z,2.67
2022-12-14T02:03:32.011Z,3.90
2022-12-14T02:06:42.876Z,6.60
2022-12-14T02:09:48.102Z,5.73
2022-12-14T02:12:58.318Z,6.40
2022-12-14T02:16:01.958Z,6.87
2022-12-14T02:19:04.779Z,6.13
2022-12-14T02:22:36.695Z,6.63
2022-12-14T02:26:06.549Z,5.03
2022-12-14T02:29:36.778Z,2.30
2022-12-14T02:32:58.888Z,2.60
2022-12-14T02:36:11.905Z,7.60
2022-12-14T02:39:25.814Z,6.03
2022-12-14T02:42:40.982Z,4.60
2022-12-14T02:45:51.466Z,7.43
2022-12-14T02:49:00.357Z,4.33
2022-12-14T02:52:08.605Z,6.53
2022-12-14T02:55:17.113Z,5.87
2022-12-14T02:58:24.874Z,6.17
2022-12-14T03:01:31.145Z,4.03
2022-12-14T03:04:48.247Z,5.53
2022-12-14T03:07:53.827Z,5.73
2022-12-14T03:10:59.481Z,5.27
2022-12-14T03:14:07.938Z,5.20
2022-12-14T03:17:19.793Z,6.77
2022-12-14T03:20:26.421Z,7.40
2022-12-14T03:23:34.837Z,2.53
2022-12-14T03:26:47.667Z,4.67
2022-12-14T03:29:57.609Z,4.60
2022-12-14T03:33:14.468Z,5.90
2022-12-14T03:36:26.338Z,5.03
2022-12-14T03:39:35.777Z,7.00
2022-12-14T03:42:49.414Z,6.50
2022-12-14T03:45:59.337Z,5.50
2022-12-14T03:49:15.439Z,1.83
2022-12-14T03:52:26.460Z,2.83
2022-12-14T03:55:39.746Z,7.30
2022-12-14T03:58:57.341Z,7.33
2022-12-14T04:02:15.073Z,4.37
2022-12-14T04:05:28.033Z,3.00
2022-12-14T04:08:41.751Z,6.73
2022-12-14T04:12:09.792Z,5.70
2022-12-14T04:15:32.855Z,2.17
2022-12-14T04:19:00.445Z,4.90
2022-12-14T04:22:08.917Z,5.97
2022-12-14T04:25:34.730Z,4.87
2022-12-14T04:29:07.530Z,4.80
2022-12-14T04:32:14.698Z,6.37
2022-12-14T04:35:24.785Z,7.37
2022-12-14T04:38:37.908Z,5.00
2022-12-14T04:41:44.671Z,6.50
2022-12-14T04:44:52.233Z,5.33
2022-12-14T04:48:11.315Z,3.83
2022-12-14T04:51:20.982Z,7.67
2022-12-14T04:54:28.943Z,7.30
2022-12-14T04:57:38.143Z,7.03
2022-12-14T05:00:58.965Z,6.00
2022-12-14T05:04:12.693Z,3.97
2022-12-14T05:07:34.123Z,7.03
2022-12-14T05:10:45.484Z,6.80
2022-12-14T05:13:51.308Z,6.03
2022-12-14T05:16:54.242Z,5.00
2022-12-14T05:19:56.979Z,7.30
2022-12-14T05:22:59.945Z,7.23
2022-12-14T05:26:04.869Z,11.43
2022-12-14T05:29:07.711Z,7.20
2022-12-14T05:32:12.446Z,7.67
2022-12-14T05:35:15.802Z,7.50
2022-12-14T05:38:18.576Z,8.80
2022-12-14T05:41:22.609Z,7.50
2022-12-14T05:44:25.307Z,5.93
2022-12-14T05:47:28.175Z,9.63
2022-12-14T05:50:31.251Z,7.50
2022-12-14T05:53:34.176Z,8.13
2022-12-14T05:56:38.427Z,4.90
2022-12-14T05:59:41.108Z,10.37
2022-12-14T06:02:45.742Z,8.40
2022-12-14T06:05:48.633Z,7.93
2022-12-14T06:08:52.288Z,9.90
2022-12-14T06:11:56.311Z,7.73
2022-12-14T06:14:58.978Z,9.80
2022-12-14T06:18:01.612Z,8.70
2022-12-14T06:21:04.679Z,9.90
2022-12-14T06:24:08.687Z,9.23
2022-12-14T06:27:12.890Z,8.57
2022-12-14T06:30:17.011Z,7.00
2022-12-14T06:33:19.754Z,5.30
2022-12-14T06:36:25.330Z,8.17
2022-12-14T06:39:28.058Z,7.70
2022-12-14T06:42:35.289Z,9.20
2022-12-14T06:45:40.911Z,7.57
2022-12-14T06:48:50.664Z,7.83
2022-12-14T06:51:53.747Z,8.37
2022-12-14T06:54:56.485Z,6.33
2022-12-14T06:58:03.521Z,8.77
2022-12-14T07:01:08.554Z,9.17
2022-12-14T07:04:13.769Z,8.10
2022-12-14T07:07:16.589Z,9.77
2022-12-14T07:10:21.630Z,9.73
2022-12-14T07:13:25.961Z,18.17
2022-12-14T07:16:30.339Z,12.23
2022-12-14T07:19:33.172Z,9.90
2022-12-14T07:22:39.242Z,9.83
2022-12-14T07:25:41.977Z,11.50
2022-12-14T07:28:53.407Z,8.40
2022-12-14T07:31:57.060Z,11.77
2022-12-14T07:34:59.726Z,13.47
2022-12-14T07:38:02.454Z,13.37
2022-12-14T07:41:10.886Z,14.27
2022-12-14T07:44:15.237Z,9.30
2022-12-14T07:47:20.269Z,9.00
2022-12-14T07:50:24.073Z,4.20
2022-12-14T07:53:32.176Z,7.07
2022-12-14T07:56:39.737Z,15.87
2022-12-14T07:59:44.705Z,7.83
2022-12-14T08:02:47.737Z,7.87
2022-12-14T08:05:50.514Z,9.30
2022-12-14T08:08:54.597Z,6.33
2022-12-14T08:12:00.330Z,8.00
2022-12-14T08:15:05.621Z,4.33
2022-12-14T08:18:08.306Z,12.07
2022-12-14T08:21:14.093Z,8.23
2022-12-14T08:24:26.020Z,7.83
2022-12-14T08:27:31.333Z,8.63
2022-12-14T08:30:39.417Z,10.73
2022-12-14T08:33:43.336Z,12.63
2022-12-14T08:36:46.024Z,22.60
2022-12-14T08:39:50.575Z,7.57
2022-12-14T08:42:53.276Z,8.47
2022-12-14T08:45:59.884Z,12.67
2022-12-14T08:49:03.118Z,7.97
2022-12-14T08:52:11.094Z,12.23
2022-12-14T08:55:13.841Z,8.73
2022-12-14T08:58:19.566Z,9.03
2022-12-14T09:01:32.162Z,9.17
2022-12-14T09:04:35.973Z,18.83
2022-12-14T09:07:38.703Z,10.70
2022-12-14T09:10:41.403Z,9.70
2022-12-14T09:13:44.783Z,9.10
2022-12-14T09:16:48.917Z,9.97
2022-12-14T09:19:51.667Z,9.27
2022-12-14T09:22:54.751Z,8.30
2022-12-14T09:26:02.650Z,10.33
2022-12-14T09:29:15.960Z,7.63
2022-12-14T09:32:19.969Z,7.80
2022-12-14T09:35:23.122Z,9.67
2022-12-14T09:38:25.803Z,10.33
2022-12-14T09:41:50.914Z,6.87
2022-12-14T09:45:01.872Z,7.50
2022-12-14T09:48:19.410Z,35.60
2022-12-14T09:51:23.961Z,14.73
2022-12-14T09:54:32.948Z,13.33
2022-12-14T09:57:38.985Z,10.67
2022-12-14T10:00:51.364Z,9.97
2022-12-14T10:04:06.028Z,11.10
2022-12-14T10:07:18.116Z,10.60
2022-12-14T10:10:26.592Z,9.73
2022-12-14T10:13:49.775Z,9.83
2022-12-14T10:17:05.914Z,11.20
2022-12-14T10:20:20.146Z,12.50
2022-12-14T10:23:26.045Z,11.87
2022-12-14T10:26:38.781Z,13.07
2022-12-14T10:29:45.019Z,12.27
2022-12-14T10:32:59.543Z,9.00
2022-12-14T10:36:18.863Z,13.50
2022-12-14T10:39:31.138Z,9.57
2022-12-14T10:42:43.561Z,10.93
2022-12-14T10:46:02.285Z,8.33
2022-12-14T10:49:14.743Z,10.83
2022-12-14T10:52:23.299Z,11.60
2022-12-14T10:55:30.387Z,16.87
2022-12-14T10:58:33.569Z,11.13
2022-12-14T11:01:36.778Z,9.93
2022-12-14T11:04:45.806Z,6.43
2022-12-14T11:07:50.070Z,8.80
2022-12-14T11:11:13.943Z,7.03
2022-12-14T11:14:23.608Z,5.47
2022-12-14T11:17:35.535Z,6.87
2022-12-14T11:20:39.491Z,5.63
2022-12-14T11:23:46.048Z,9.80
2022-12-14T11:26:50.825Z,8.87
2022-12-14T11:29:53.558Z,6.33
2022-12-14T11:32:56.473Z,6.23
2022-12-14T11:36:02.879Z,8.13
2022-12-14T11:39:19.628Z,7.97
2022-12-14T11:42:23.414Z,7.97
2022-12-14T11:45:31.476Z,9.07
2022-12-14T11:48:38.519Z,11.07
2022-12-14T11:51:59.821Z,15.20
2022-12-14T11:55:13.408Z,8.70
2022-12-14T11:58:20.107Z,7.40
2022-12-14T12:01:26.676Z,4.00
2022-12-14T12:04:31.531Z,8.33
2022-12-14T12:07:37.221Z,9.77
2022-12-14T12:10:45.185Z,10.10
2022-12-14T12:13:59.465Z,11.83
2022-12-14T12:17:08.071Z,9.37
2022-12-14T12:20:21.549Z,9.70
2022-12-14T12:23:32.696Z,11.63
2022-12-14T12:26:42.298Z,9.53
2022-12-14T12:29:52.041Z,5.20
2022-12-14T12:33:00.549Z,6.50
2022-12-14T12:36:06.546Z,6.67
2022-12-14T12:39:15.998Z,8.03
2022-12-14T12:42:27.288Z,11.20
2022-12-14T12:45:36.198Z,8.83
2022-12-14T12:48:44.464Z,8.07
2022-12-14T12:51:50.380Z,11.50
2022-12-14T12:55:02.933Z,15.17
2022-12-14T12:58:10.319Z,10.07
2022-12-14T13:01:24.214Z,9.67
2022-12-14T13:04:33.681Z,9.43
2022-12-14T13:07:44.850Z,8.80
2022-12-14T13:14:30.607Z,10.50
2022-12-14T13:17:38.712Z,8.57
2022-12-14T13:20:41.584Z,9.67
2022-12-14T13:23:45.661Z,8.77
2022-12-14T13:27:18.408Z,8.27
2022-12-14T13:30:36.388Z,9.17
2022-12-14T13:34:08.163Z,9.87
2022-12-14T13:37:51.127Z,9.07
2022-12-14T13:41:08.282Z,8.20
2022-12-14T13:44:44.085Z,6.97
2022-12-14T13:47:53.992Z,10.10
2022-12-14T13:51:02.617Z,11.87
2022-12-14T13:54:08.997Z,8.73
2022-12-14T13:57:15.257Z,7.23
2022-12-14T14:00:51.663Z,8.50
2022-12-14T14:04:18.363Z,7.77
2022-12-14T14:07:50.826Z,7.67
2022-12-14T14:11:35.300Z,7.27
2022-12-14T14:14:37.546Z,5.53
2022-12-14T14:17:42.812Z,9.60
2022-12-14T14:20:55.252Z,8.13
2022-12-14T14:24:19.396Z,8.13
2022-12-14T14:27:24.877Z,7.73
2022-12-14T14:30:30.200Z,8.10
2022-12-14T14:33:48.591Z,9.13
2022-12-14T14:36:57.278Z,8.73
2022-12-14T14:40:38.299Z,8.07
2022-12-14T14:43:52.322Z,8.13
2022-12-14T14:46:58.122Z,9.10
2022-12-14T14:50:04.310Z,9.27
2022-12-14T14:53:28.901Z,19.13
2022-12-14T14:56:40.043Z,10.73
2022-12-14T14:59:50.984Z,19.77
2022-12-14T15:03:00.212Z,10.23
2022-12-14T15:06:04.026Z,10.73
2022-12-14T15:09:21.032Z,8.73
2022-12-14T15:12:36.806Z,8.97
2022-12-14T15:15:43.425Z,9.30
2022-12-14T15:18:46.353Z,8.63
2022-12-14T15:21:50.400Z,33.63
2022-12-14T15:24:57.466Z,11.93
2022-12-14T15:28:09.427Z,14.10
2022-12-14T15:31:12.279Z,10.33
2022-12-14T15:34:18.505Z,11.27
2022-12-14T15:37:27.845Z,13.53
2022-12-14T15:40:32.666Z,11.20
2022-12-14T15:43:35.426Z,12.00
2022-12-14T15:46:40.439Z,12.93
2022-12-14T15:49:44.106Z,12.10
2022-12-14T15:52:47.947Z,14.30
2022-12-14T15:56:00.255Z,10.43
2022-12-14T15:59:15.940Z,11.37
2022-12-14T16:02:27.221Z,18.60
2022-12-14T16:05:31.238Z,13.03
2022-12-14T16:08:36.406Z,12.10
2022-12-14T16:11:44.249Z,12.27
2022-12-14T16:14:54.085Z,10.80
2022-12-14T16:18:02.227Z,15.97
2022-12-14T16:21:05.691Z,13.20
2022-12-14T16:24:24.004Z,18.23
2022-12-14T16:27:29.058Z,26.83
2022-12-14T16:30:33.366Z,15.67
2022-12-14T16:33:39.410Z,13.17
2022-12-14T16:37:08.477Z,14.97
2022-12-14T16:40:24.671Z,21.43
2022-12-14T16:43:34.059Z,21.00
2022-12-14T16:46:44.266Z,18.20
2022-12-14T16:49:56.041Z,25.40
2022-12-14T16:53:16.874Z,18.90
2022-12-14T16:56:22.775Z,13.07
2022-12-14T16:59:31.333Z,12.70
2022-12-14T17:02:36.605Z,11.67
2022-12-14T17:05:41.931Z,11.47
2022-12-14T17:08:51.963Z,12.13
2022-12-14T17:12:07.277Z,11.80
2022-12-14T17:15:23.786Z,12.00
2022-12-14T17:18:35.898Z,12.10
2022-12-14T17:21:39.452Z,12.33
2022-12-14T17:24:42.938Z,13.73
2022-12-14T17:27:46.053Z,12.97
2022-12-14T17:30:51.018Z,13.40
2022-12-14T17:33:55.041Z,14.30
2022-12-14T17:36:58.381Z,14.07
2022-12-14T17:40:02.241Z,14.63
2022-12-14T17:43:10.426Z,14.20
2022-12-14T17:46:15.056Z,13.23
2022-12-14T17:49:33.854Z,13.60
2022-12-14T17:52:36.830Z,12.77
2022-12-14T17:55:39.648Z,23.03
2022-12-14T17:58:45.404Z,20.50
2022-12-14T18:01:49.831Z,22.43
2022-12-14T18:04:53.158Z,22.27
2022-12-14T18:07:55.922Z,20.80
2022-12-14T18:11:00.939Z,14.97
2022-12-14T18:14:03.950Z,14.87
2022-12-14T18:17:11.405Z,16.73
2022-12-14T18:20:15.188Z,15.03
2022-12-14T18:23:19.216Z,15.83
2022-12-14T18:26:23.915Z,24.27
2022-12-14T18:29:27.644Z,15.87
2022-12-14T18:32:31.932Z,14.10
2022-12-14T18:35:38.429Z,14.67
2022-12-14T18:38:41.128Z,16.23
2022-12-14T18:41:43.855Z,19.57
2022-12-14T18:44:46.656Z,24.97
2022-12-14T18:47:51.465Z,22.67
2022-12-14T18:50:55.799Z,16.60
2022-12-14T18:54:00.666Z,20.57
2022-12-14T18:57:03.445Z,18.87
2022-12-14T19:00:11.350Z,17.63
2022-12-14T19:03:16.132Z,14.47
2022-12-14T19:06:43.593Z,14.20
2022-12-14T19:09:44.255Z,13.67
2022-12-14T19:12:48.540Z,14.43
2022-12-14T19:15:51.410Z,14.87
2022-12-14T19:18:56.662Z,13.20
2022-12-14T19:21:59.419Z,14.83
2022-12-14T19:25:02.147Z,14.33
2022-12-14T19:28:32.808Z,14.10
2022-12-14T19:31:36.219Z,13.87
2022-12-14T19:34:40.313Z,13.67
2022-12-14T19:37:43.049Z,15.83
2022-12-14T19:40:46.893Z,17.73
2022-12-14T19:43:49.673Z,18.07
2022-12-14T19:46:52.906Z,17.03
2022-12-14T19:49:57.471Z,19.90
2022-12-14T19:53:00.501Z,26.90
2022-12-14T19:56:04.424Z,18.47
2022-12-14T19:59:07.242Z,18.83
2022-12-14T20:02:13.250Z,18.17
2022-12-14T20:05:18.301Z,17.53
2022-12-14T20:08:21.064Z,15.40
2022-12-14T20:11:24.466Z,19.63
2022-12-14T20:14:30.303Z,15.03
2022-12-14T20:17:33.198Z,14.73
2022-12-14T20:20:40.416Z,21.37
2022-12-14T20:23:43.241Z,16.00
2022-12-14T20:26:46.235Z,14.93
2022-12-14T20:29:52.144Z,15.47
2022-12-14T20:32:55.028Z,18.73
2022-12-14T20:35:59.716Z,18.40
2022-12-14T20:39:03.392Z,17.30
2022-12-14T20:42:06.231Z,16.57
2022-12-14T20:45:15.298Z,19.00
2022-12-14T20:48:17.985Z,25.67
2022-12-14T20:51:22.220Z,22.00
2022-12-14T20:54:25.555Z,19.33
2022-12-14T20:57:28.443Z,17.77
2022-12-14T21:00:31.203Z,13.93
2022-12-14T21:03:37.387Z,22.37
2022-12-14T21:06:43.500Z,20.70
2022-12-14T21:09:46.505Z,17.77
2022-12-14T21:12:49.724Z,19.30
2022-12-14T21:15:55.539Z,22.23
2022-12-14T21:18:58.263Z,17.23
2022-12-14T21:22:03.347Z,18.70
2022-12-14T21:25:07.320Z,20.33
2022-12-14T21:28:10.411Z,18.77
2022-12-14T21:31:15.879Z,16.20
2022-12-14T21:34:20.719Z,18.33
2022-12-14T21:37:24.917Z,16.27
2022-12-14T21:40:45.144Z,15.77
2022-12-14T21:43:47.922Z,16.07
2022-12-14T21:46:50.623Z,17.60
2022-12-14T21:49:53.835Z,17.83
2022-12-14T21:52:58.004Z,20.77
2022-12-14T21:56:20.957Z,19.93
2022-12-14T21:59:26.437Z,18.47
2022-12-14T22:02:30.424Z,18.73
2022-12-14T22:05:33.282Z,19.60
2022-12-14T22:08:37.540Z,19.73
2022-12-14T22:11:40.222Z,19.27
2022-12-14T22:14:43.533Z,15.67
2022-12-14T22:17:46.302Z,15.73
2022-12-14T22:20:49.108Z,16.37
2022-12-14T22:23:54.643Z,15.63
2022-12-14T22:26:57.981Z,15.87
2022-12-14T22:30:00.654Z,15.63
2022-12-14T22:33:03.616Z,19.87
2022-12-14T22:36:10.114Z,17.17
2022-12-14T22:39:14.895Z,20.90
2022-12-14T22:42:17.711Z,17.50
2022-12-14T22:45:21.045Z,15.93
2022-12-14T22:48:23.791Z,15.40
2022-12-14T22:51:29.097Z,17.07
2022-12-14T22:54:33.175Z,17.50
2022-12-14T22:57:41.600Z,19.07
2022-12-14T23:00:44.571Z,17.40
2022-12-14T23:03:48.379Z,16.73
2022-12-14T23:06:51.232Z,15.53
2022-12-14T23:10:12.702Z,17.60
2022-12-14T23:13:33.589Z,14.93
2022-12-14T23:16:53.968Z,13.57
2022-12-14T23:20:14.135Z,14.20
2022-12-14T23:23:34.700Z,13.57
2022-12-14T23:26:56.553Z,14.60
2022-12-14T23:30:17.540Z,14.10
2022-12-14T23:33:37.922Z,19.03
2022-12-14T23:36:58.092Z,16.00
2022-12-14T23:40:18.477Z,16.80
2022-12-14T23:43:39.812Z,15.40
2022-12-14T23:47:00.575Z,15.10
2022-12-14T23:50:21.086Z,16.13
2022-12-14T23:53:41.595Z,14.93
2022-12-14T23:57:01.530Z,16.07
